Chem Orion — V7GZ9 — position and weather

sailwx.info

Track history (hours):
 
Tides and Currents Weather Stations Pressure Air Temp Water Temp Dewpoint Dewpoint Depression Visibility Wind Speed Wind Dir Waves Ship Positions

Chem Orion

Last reported at 2014-Nov-28 23:29 UTC. Time now 2014-Nov-29 00:08 UTC.
Position N 50°02' W 002°42'.

Length 125 m; draft 7.7 m.

Type: Ship (hazmat cat D). MMSI: 538002197.

Date/timePositionNaut miles runAvg speedWind from/ knotsBaromVisibWave heightAir tempDewpointWater temp
2014-Nov-28 23:29N 50°02' W 002°42'11212.0
2014-Nov-28 14:06N 50°31' E 000°07'6 9.9
2014-Nov-28 13:31N 50°33' E 000°16'9 9.4
2014-Nov-28 12:33N 50°35' E 000°30'10 9.8
2014-Nov-28 11:33N 50°40' E 000°43'1211.3
2014-Nov-28 10:27N 50°48' E 000°58'1112.5
2014-Nov-28 09:33N 50°55' E 001°12'1312.6
2014-Nov-28 08:33N 51°03' E 001°27'1111.2
2014-Nov-28 07:33N 51°11' E 001°41'1010.0
2014-Nov-28 06:33N 51°19' E 001°50'10 9.6
2014-Nov-28 05:34N 51°27' E 001°57'12 9.7
2014-Nov-28 04:21N 51°36' E 002°09'1010.2
2014-Nov-28 03:20N 51°43' E 002°21'5511.4
2014-Nov-27 22:33N 52°03' E 003°43'1010.1
2014-Nov-27 21:33N 52°01' E 003°59'1110.8
2014-Nov-27 20:33N 51°55' E 004°14'5 4.7
2014-Nov-27 19:33N 51°53' E 004°21'0 0.0
2014-Nov-27 18:31N 51°53' E 004°21'0 0.0
2014-Nov-27 17:31N 51°53' E 004°21'0 0.0
2014-Nov-27 16:31N 51°53' E 004°21'0 0.0
2014-Nov-27 15:31N 51°53' E 004°21'0 0.0
2014-Nov-27 14:31N 51°53' E 004°21'0 0.0
2014-Nov-27 13:28N 51°53' E 004°21'0 0.0
2014-Nov-27 12:31N 51°53' E 004°21'0 0.0
2014-Nov-27 11:31N 51°53' E 004°21'0 0.0
2014-Nov-27 10:28N 51°53' E 004°21'0 0.0
2014-Nov-27 09:31N 51°53' E 004°21'0 0.0
2014-Nov-27 08:31N 51°53' E 004°21'0 0.0
2014-Nov-27 07:31N 51°53' E 004°21'0 0.0
2014-Nov-27 06:31N 51°53' E 004°21'0 0.0
2014-Nov-27 05:31N 51°53' E 004°21'0 0.0
2014-Nov-27 04:31N 51°53' E 004°21'0 0.0
2014-Nov-27 03:31N 51°53' E 004°21'0 0.0
2014-Nov-27 02:31N 51°53' E 004°21'0 0.0
2014-Nov-27 01:31N 51°53' E 004°21'0 0.0
2014-Nov-27 00:31N 51°53' E 004°21'0 0.0
2014-Nov-26 23:31N 51°53' E 004°21'0 0.0
2014-Nov-26 22:31N 51°53' E 004°21'0 0.2
2014-Nov-26 21:28N 51°53' E 004°21'0 0.1
2014-Nov-26 20:28N 51°53' E 004°20'0 0.0
2014-Nov-26 19:25N 51°53' E 004°20'0 0.0
2014-Nov-26 18:31N 51°53' E 004°20'0 0.0
2014-Nov-26 17:28N 51°53' E 004°20'0 0.0
2014-Nov-26 16:31N 51°53' E 004°20'0 0.0
2014-Nov-26 15:31N 51°53' E 004°20'0 0.0
2014-Nov-26 14:25N 51°53' E 004°20'0 0.0
2014-Nov-26 13:31N 51°53' E 004°20'0 0.0
2014-Nov-26 12:31N 51°53' E 004°20'0 0.0
2014-Nov-26 11:19N 51°53' E 004°20'0 0.0
2014-Nov-26 10:31N 51°53' E 004°20'0 0.0
2014-Nov-26 09:31N 51°53' E 004°20'0 0.0
2014-Nov-26 08:34N 51°53' E 004°20'0 0.0
2014-Nov-26 07:34N 51°53' E 004°20'0 0.0
2014-Nov-26 06:33N 51°53' E 004°20'0 0.0
2014-Nov-26 05:33N 51°53' E 004°20'0 0.0
2014-Nov-26 04:33N 51°53' E 004°20'0 0.0
2014-Nov-26 03:33N 51°53' E 004°20'0 0.0
2014-Nov-26 02:33N 51°53' E 004°20'0 0.0
2014-Nov-26 01:33N 51°53' E 004°20'0 0.0
2014-Nov-26 00:33N 51°53' E 004°20'0 0.0
2014-Nov-25 23:33N 51°53' E 004°20'0 0.0
2014-Nov-25 22:33N 51°53' E 004°20'0 0.0
2014-Nov-25 21:33N 51°53' E 004°20'0 0.0
2014-Nov-25 20:33N 51°53' E 004°20'0 0.0
2014-Nov-25 19:33N 51°53' E 004°20'0 0.0
2014-Nov-25 18:33N 51°53' E 004°20'0 0.0
2014-Nov-25 17:33N 51°53' E 004°20'0 0.0
2014-Nov-25 16:30N 51°53' E 004°20'0 0.0
2014-Nov-25 15:33N 51°53' E 004°20'0 0.0
2014-Nov-25 14:33N 51°53' E 004°20'0 0.0
2014-Nov-25 13:31N 51°53' E 004°20'0 0.0
2014-Nov-25 12:33N 51°53' E 004°20'0 0.0
2014-Nov-25 11:33N 51°53' E 004°20'0 0.0
2014-Nov-25 10:33N 51°53' E 004°20'0 0.0
2014-Nov-25 09:33N 51°53' E 004°20'0 0.0
2014-Nov-25 08:33N 51°53' E 004°20'0 0.0
2014-Nov-25 07:33N 51°53' E 004°20'0 0.0
2014-Nov-25 06:30N 51°53' E 004°20'0 0.0
2014-Nov-25 05:33N 51°53' E 004°20'0 0.0
2014-Nov-25 04:33N 51°53' E 004°20'0 0.0
2014-Nov-25 03:33N 51°53' E 004°20'0 0.0
2014-Nov-25 02:33N 51°53' E 004°20'0 0.0
2014-Nov-25 01:33N 51°53' E 004°20'0 0.0
2014-Nov-25 00:33N 51°53' E 004°20'0 0.0
2014-Nov-24 23:30N 51°53' E 004°20'0 0.0
2014-Nov-24 22:33N 51°53' E 004°20'0 0.0
2014-Nov-24 21:30N 51°53' E 004°20'0 0.0
2014-Nov-24 20:33N 51°53' E 004°20'0 0.0
2014-Nov-24 19:33N 51°53' E 004°20'0 0.0
2014-Nov-24 18:33N 51°53' E 004°20'0 0.0
2014-Nov-24 17:34N 51°53' E 004°20'0 0.0
2014-Nov-24 16:33N 51°53' E 004°20'0 0.0
2014-Nov-24 15:32N 51°53' E 004°20'0 0.0
2014-Nov-24 14:29N 51°53' E 004°20'0 0.0
2014-Nov-24 13:29N 51°53' E 004°20'0 0.0
2014-Nov-24 12:32N 51°53' E 004°20'0 0.0
2014-Nov-24 11:32N 51°53' E 004°20'0 0.0
2014-Nov-24 10:32N 51°53' E 004°20'0 0.0
2014-Nov-24 09:32N 51°53' E 004°20'0 0.0
2014-Nov-24 08:32N 51°53' E 004°20'0 0.0
2014-Nov-24 07:32N 51°53' E 004°20'0 0.0
2014-Nov-24 06:32N 51°53' E 004°20'0 0.0
2014-Nov-24 05:32N 51°53' E 004°20'0 0.0
2014-Nov-24 04:33N 51°53' E 004°20'0 0.0
2014-Nov-24 03:32N 51°53' E 004°20'0 0.0
2014-Nov-24 02:32N 51°53' E 004°20'0 0.0
2014-Nov-24 01:32N 51°53' E 004°20'0 0.0
2014-Nov-24 00:29N 51°53' E 004°20'0 0.0
2014-Nov-23 23:32N 51°53' E 004°20'0 0.0
2014-Nov-23 22:32N 51°53' E 004°20'0 0.0
2014-Nov-23 21:32N 51°53' E 004°20'0 0.4
2014-Nov-23 20:32N 51°53' E 004°21'0 0.0
2014-Nov-23 19:32N 51°53' E 004°21'0 0.0
2014-Nov-23 18:32N 51°53' E 004°21'0 0.0
2014-Nov-23 17:32N 51°53' E 004°21'0 0.0
2014-Nov-23 16:32N 51°53' E 004°21'0 0.0
2014-Nov-23 15:32N 51°53' E 004°21'0 0.0
2014-Nov-23 14:29N 51°53' E 004°21'0 0.0
2014-Nov-23 13:32N 51°53' E 004°21'0 0.0
2014-Nov-23 12:32N 51°53' E 004°21'0 0.0
2014-Nov-23 11:32N 51°53' E 004°21'0 0.0
2014-Nov-23 10:32N 51°53' E 004°21'0 0.0
2014-Nov-23 09:32N 51°53' E 004°21'0 0.0
2014-Nov-23 08:32N 51°53' E 004°21'0 0.0
2014-Nov-23 07:32N 51°53' E 004°21'0 0.0
2014-Nov-23 06:32N 51°53' E 004°21'0 0.0
2014-Nov-23 05:32N 51°53' E 004°21'0 0.0
2014-Nov-23 04:32N 51°53' E 004°21'0 0.0
2014-Nov-23 03:32N 51°53' E 004°21'0 0.0
2014-Nov-23 02:28N 51°53' E 004°21'0 0.0
2014-Nov-23 01:31N 51°53' E 004°21'0 0.0
2014-Nov-23 00:31N 51°53' E 004°21'0 0.0
2014-Nov-22 23:31N 51°53' E 004°21'0 0.0
2014-Nov-22 22:31N 51°53' E 004°21'0 0.0
2014-Nov-22 21:31N 51°53' E 004°21'0 0.0
2014-Nov-22 20:31N 51°53' E 004°21'0 0.0
2014-Nov-22 19:31N 51°53' E 004°21'0 0.0
2014-Nov-22 18:31N 51°53' E 004°21'0 0.0
2014-Nov-22 17:31N 51°53' E 004°21'0 0.0
2014-Nov-22 16:31N 51°53' E 004°21'0 0.0
2014-Nov-22 15:32N 51°53' E 004°21'0 0.0
2014-Nov-22 14:31N 51°53' E 004°21'0 0.0
2014-Nov-22 13:31N 51°53' E 004°21'0 0.0
2014-Nov-22 12:31N 51°53' E 004°21'0 0.0
2014-Nov-22 11:31N 51°53' E 004°21'0 0.0
2014-Nov-22 10:31N 51°53' E 004°21'0 0.0
2014-Nov-22 09:31N 51°53' E 004°21'0 0.0
2014-Nov-22 08:31N 51°53' E 004°21'0 0.0
2014-Nov-22 07:31N 51°53' E 004°21'0 0.0
2014-Nov-22 06:31N 51°53' E 004°21'0 0.0
2014-Nov-22 05:31N 51°53' E 004°21'0 0.0
2014-Nov-22 04:31N 51°53' E 004°21'0 0.0
2014-Nov-22 03:31N 51°53' E 004°21'0 0.0
2014-Nov-22 02:31N 51°53' E 004°21'0 0.0
2014-Nov-22 01:31N 51°53' E 004°21'0 0.0
2014-Nov-22 00:31N 51°53' E 004°21'0 0.0
2014-Nov-21 23:31N 51°53' E 004°21'2 2.4
2014-Nov-21 22:33N 51°54' E 004°17'9 8.7
2014-Nov-21 21:33N 51°59' E 004°05'9 8.5
2014-Nov-21 20:33N 51°60' E 003°52'2 2.1
2014-Nov-21 19:34N 51°59' E 003°48'3 3.2
2014-Nov-21 18:33N 51°59' E 003°43'7 7.1
2014-Nov-21 17:33N 51°56' E 003°33'7 6.8
2014-Nov-21 16:33N 51°54' E 003°22'8 7.0
2014-Nov-21 15:27N 51°52' E 003°10'6 6.6
2014-Nov-21 14:31N 51°50' E 003°01'59 7.4
2014-Nov-21 06:32N 52°49' E 003°11'2311.0
2014-Nov-21 04:25N 53°11' E 003°24'71 9.9
2014-Nov-20 21:16N 54°04' E 004°44'1110.6
2014-Nov-20 20:12N 54°13' E 004°54'28510.5
2014-Nov-19 17:10N 57°49' E 010°26'913.1
2014-Nov-19 16:31N 57°48' E 010°42'1112.0
2014-Nov-19 15:34N 57°41' E 010°59'1212.2
2014-Nov-19 14:33N 57°33' E 011°16'1110.9
2014-Nov-19 13:33N 57°24' E 011°28'85 7.5
2014-Nov-19 02:17N 56°08' E 010°20'  
Track history (hours):
 
Tides and Currents Weather Stations Pressure Air Temp Water Temp Dewpoint Dewpoint Depression Visibility Wind Speed Wind Dir Waves Ship Positions

Chem Orion

Last reported at 2014-Nov-28 23:29 UTC. Time now 2014-Nov-29 00:08 UTC.
Position N 50°02' W 002°42'.

Length 125 m; draft 7.7 m.

Type: Ship (hazmat cat D). MMSI: 538002197.

Date/timePositionNaut miles runAvg speedWind from/ knotsBaromVisibWave heightAir tempDewpointWater temp
2014-Nov-28 23:29N 50°02' W 002°42'11212.0
2014-Nov-28 14:06N 50°31' E 000°07'6 9.9
2014-Nov-28 13:31N 50°33' E 000°16'9 9.4
2014-Nov-28 12:33N 50°35' E 000°30'10 9.8
2014-Nov-28 11:33N 50°40' E 000°43'1211.3
2014-Nov-28 10:27N 50°48' E 000°58'1112.5
2014-Nov-28 09:33N 50°55' E 001°12'1312.6
2014-Nov-28 08:33N 51°03' E 001°27'1111.2
2014-Nov-28 07:33N 51°11' E 001°41'1010.0
2014-Nov-28 06:33N 51°19' E 001°50'10 9.6
2014-Nov-28 05:34N 51°27' E 001°57'12 9.7
2014-Nov-28 04:21N 51°36' E 002°09'1010.2
2014-Nov-28 03:20N 51°43' E 002°21'5511.4
2014-Nov-27 22:33N 52°03' E 003°43'1010.1
2014-Nov-27 21:33N 52°01' E 003°59'1110.8
2014-Nov-27 20:33N 51°55' E 004°14'5 4.7
2014-Nov-27 19:33N 51°53' E 004°21'0 0.0
2014-Nov-27 18:31N 51°53' E 004°21'0 0.0
2014-Nov-27 17:31N 51°53' E 004°21'0 0.0
2014-Nov-27 16:31N 51°53' E 004°21'0 0.0
2014-Nov-27 15:31N 51°53' E 004°21'0 0.0
2014-Nov-27 14:31N 51°53' E 004°21'0 0.0
2014-Nov-27 13:28N 51°53' E 004°21'0 0.0
2014-Nov-27 12:31N 51°53' E 004°21'0 0.0
2014-Nov-27 11:31N 51°53' E 004°21'0 0.0
2014-Nov-27 10:28N 51°53' E 004°21'0 0.0
2014-Nov-27 09:31N 51°53' E 004°21'0 0.0
2014-Nov-27 08:31N 51°53' E 004°21'0 0.0
2014-Nov-27 07:31N 51°53' E 004°21'0 0.0
2014-Nov-27 06:31N 51°53' E 004°21'0 0.0
2014-Nov-27 05:31N 51°53' E 004°21'0 0.0
2014-Nov-27 04:31N 51°53' E 004°21'0 0.0
2014-Nov-27 03:31N 51°53' E 004°21'0 0.0
2014-Nov-27 02:31N 51°53' E 004°21'0 0.0
2014-Nov-27 01:31N 51°53' E 004°21'0 0.0
2014-Nov-27 00:31N 51°53' E 004°21'0 0.0
2014-Nov-26 23:31N 51°53' E 004°21'0 0.0
2014-Nov-26 22:31N 51°53' E 004°21'0 0.2
2014-Nov-26 21:28N 51°53' E 004°21'0 0.1
2014-Nov-26 20:28N 51°53' E 004°20'0 0.0
2014-Nov-26 19:25N 51°53' E 004°20'0 0.0
2014-Nov-26 18:31N 51°53' E 004°20'0 0.0
2014-Nov-26 17:28N 51°53' E 004°20'0 0.0
2014-Nov-26 16:31N 51°53' E 004°20'0 0.0
2014-Nov-26 15:31N 51°53' E 004°20'0 0.0
2014-Nov-26 14:25N 51°53' E 004°20'0 0.0
2014-Nov-26 13:31N 51°53' E 004°20'0 0.0
2014-Nov-26 12:31N 51°53' E 004°20'0 0.0
2014-Nov-26 11:19N 51°53' E 004°20'0 0.0
2014-Nov-26 10:31N 51°53' E 004°20'0 0.0
2014-Nov-26 09:31N 51°53' E 004°20'0 0.0
2014-Nov-26 08:34N 51°53' E 004°20'0 0.0
2014-Nov-26 07:34N 51°53' E 004°20'0 0.0
2014-Nov-26 06:33N 51°53' E 004°20'0 0.0
2014-Nov-26 05:33N 51°53' E 004°20'0 0.0
2014-Nov-26 04:33N 51°53' E 004°20'0 0.0
2014-Nov-26 03:33N 51°53' E 004°20'0 0.0
2014-Nov-26 02:33N 51°53' E 004°20'0 0.0
2014-Nov-26 01:33N 51°53' E 004°20'0 0.0
2014-Nov-26 00:33N 51°53' E 004°20'0 0.0
2014-Nov-25 23:33N 51°53' E 004°20'0 0.0
2014-Nov-25 22:33N 51°53' E 004°20'0 0.0
2014-Nov-25 21:33N 51°53' E 004°20'0 0.0
2014-Nov-25 20:33N 51°53' E 004°20'0 0.0
2014-Nov-25 19:33N 51°53' E 004°20'0 0.0
2014-Nov-25 18:33N 51°53' E 004°20'0 0.0
2014-Nov-25 17:33N 51°53' E 004°20'0 0.0
2014-Nov-25 16:30N 51°53' E 004°20'0 0.0
2014-Nov-25 15:33N 51°53' E 004°20'0 0.0
2014-Nov-25 14:33N 51°53' E 004°20'0 0.0
2014-Nov-25 13:31N 51°53' E 004°20'0 0.0
2014-Nov-25 12:33N 51°53' E 004°20'0 0.0
2014-Nov-25 11:33N 51°53' E 004°20'0 0.0
2014-Nov-25 10:33N 51°53' E 004°20'0 0.0
2014-Nov-25 09:33N 51°53' E 004°20'0 0.0
2014-Nov-25 08:33N 51°53' E 004°20'0 0.0
2014-Nov-25 07:33N 51°53' E 004°20'0 0.0
2014-Nov-25 06:30N 51°53' E 004°20'0 0.0
2014-Nov-25 05:33N 51°53' E 004°20'0 0.0
2014-Nov-25 04:33N 51°53' E 004°20'0 0.0
2014-Nov-25 03:33N 51°53' E 004°20'0 0.0
2014-Nov-25 02:33N 51°53' E 004°20'0 0.0
2014-Nov-25 01:33N 51°53' E 004°20'0 0.0
2014-Nov-25 00:33N 51°53' E 004°20'0 0.0
2014-Nov-24 23:30N 51°53' E 004°20'0 0.0
2014-Nov-24 22:33N 51°53' E 004°20'0 0.0
2014-Nov-24 21:30N 51°53' E 004°20'0 0.0
2014-Nov-24 20:33N 51°53' E 004°20'0 0.0
2014-Nov-24 19:33N 51°53' E 004°20'0 0.0
2014-Nov-24 18:33N 51°53' E 004°20'0 0.0
2014-Nov-24 17:34N 51°53' E 004°20'0 0.0
2014-Nov-24 16:33N 51°53' E 004°20'0 0.0
2014-Nov-24 15:32N 51°53' E 004°20'0 0.0
2014-Nov-24 14:29N 51°53' E 004°20'0 0.0
2014-Nov-24 13:29N 51°53' E 004°20'0 0.0
2014-Nov-24 12:32N 51°53' E 004°20'0 0.0
2014-Nov-24 11:32N 51°53' E 004°20'0 0.0
2014-Nov-24 10:32N 51°53' E 004°20'0 0.0
2014-Nov-24 09:32N 51°53' E 004°20'0 0.0
2014-Nov-24 08:32N 51°53' E 004°20'0 0.0
2014-Nov-24 07:32N 51°53' E 004°20'0 0.0
2014-Nov-24 06:32N 51°53' E 004°20'0 0.0
2014-Nov-24 05:32N 51°53' E 004°20'0 0.0
2014-Nov-24 04:33N 51°53' E 004°20'0 0.0
2014-Nov-24 03:32N 51°53' E 004°20'0 0.0
2014-Nov-24 02:32N 51°53' E 004°20'0 0.0
2014-Nov-24 01:32N 51°53' E 004°20'0 0.0
2014-Nov-24 00:29N 51°53' E 004°20'0 0.0
2014-Nov-23 23:32N 51°53' E 004°20'0 0.0
2014-Nov-23 22:32N 51°53' E 004°20'0 0.0
2014-Nov-23 21:32N 51°53' E 004°20'0 0.4
2014-Nov-23 20:32N 51°53' E 004°21'0 0.0
2014-Nov-23 19:32N 51°53' E 004°21'0 0.0
2014-Nov-23 18:32N 51°53' E 004°21'0 0.0
2014-Nov-23 17:32N 51°53' E 004°21'0 0.0
2014-Nov-23 16:32N 51°53' E 004°21'0 0.0
2014-Nov-23 15:32N 51°53' E 004°21'0 0.0
2014-Nov-23 14:29N 51°53' E 004°21'0 0.0
2014-Nov-23 13:32N 51°53' E 004°21'0 0.0
2014-Nov-23 12:32N 51°53' E 004°21'0 0.0
2014-Nov-23 11:32N 51°53' E 004°21'0 0.0
2014-Nov-23 10:32N 51°53' E 004°21'0 0.0
2014-Nov-23 09:32N 51°53' E 004°21'0 0.0
2014-Nov-23 08:32N 51°53' E 004°21'0 0.0
2014-Nov-23 07:32N 51°53' E 004°21'0 0.0
2014-Nov-23 06:32N 51°53' E 004°21'0 0.0
2014-Nov-23 05:32N 51°53' E 004°21'0 0.0
2014-Nov-23 04:32N 51°53' E 004°21'0 0.0
2014-Nov-23 03:32N 51°53' E 004°21'0 0.0
2014-Nov-23 02:28N 51°53' E 004°21'0 0.0
2014-Nov-23 01:31N 51°53' E 004°21'0 0.0
2014-Nov-23 00:31N 51°53' E 004°21'0 0.0
2014-Nov-22 23:31N 51°53' E 004°21'0 0.0
2014-Nov-22 22:31N 51°53' E 004°21'0 0.0
2014-Nov-22 21:31N 51°53' E 004°21'0 0.0
2014-Nov-22 20:31N 51°53' E 004°21'0 0.0
2014-Nov-22 19:31N 51°53' E 004°21'0 0.0
2014-Nov-22 18:31N 51°53' E 004°21'0 0.0
2014-Nov-22 17:31N 51°53' E 004°21'0 0.0
2014-Nov-22 16:31N 51°53' E 004°21'0 0.0
2014-Nov-22 15:32N 51°53' E 004°21'0 0.0
2014-Nov-22 14:31N 51°53' E 004°21'0 0.0
2014-Nov-22 13:31N 51°53' E 004°21'0 0.0
2014-Nov-22 12:31N 51°53' E 004°21'0 0.0
2014-Nov-22 11:31N 51°53' E 004°21'0 0.0
2014-Nov-22 10:31N 51°53' E 004°21'0 0.0
2014-Nov-22 09:31N 51°53' E 004°21'0 0.0
2014-Nov-22 08:31N 51°53' E 004°21'0 0.0
2014-Nov-22 07:31N 51°53' E 004°21'0 0.0
2014-Nov-22 06:31N 51°53' E 004°21'0 0.0
2014-Nov-22 05:31N 51°53' E 004°21'0 0.0
2014-Nov-22 04:31N 51°53' E 004°21'0 0.0
2014-Nov-22 03:31N 51°53' E 004°21'0 0.0
2014-Nov-22 02:31N 51°53' E 004°21'0 0.0
2014-Nov-22 01:31N 51°53' E 004°21'0 0.0
2014-Nov-22 00:31N 51°53' E 004°21'0 0.0
2014-Nov-21 23:31N 51°53' E 004°21'2 2.4
2014-Nov-21 22:33N 51°54' E 004°17'9 8.7
2014-Nov-21 21:33N 51°59' E 004°05'9 8.5
2014-Nov-21 20:33N 51°60' E 003°52'2 2.1
2014-Nov-21 19:34N 51°59' E 003°48'3 3.2
2014-Nov-21 18:33N 51°59' E 003°43'7 7.1
2014-Nov-21 17:33N 51°56' E 003°33'7 6.8
2014-Nov-21 16:33N 51°54' E 003°22'8 7.0
2014-Nov-21 15:27N 51°52' E 003°10'6 6.6
2014-Nov-21 14:31N 51°50' E 003°01'59 7.4
2014-Nov-21 06:32N 52°49' E 003°11'2311.0
2014-Nov-21 04:25N 53°11' E 003°24'71 9.9
2014-Nov-20 21:16N 54°04' E 004°44'1110.6
2014-Nov-20 20:12N 54°13' E 004°54'28510.5
2014-Nov-19 17:10N 57°49' E 010°26'913.1
2014-Nov-19 16:31N 57°48' E 010°42'1112.0
2014-Nov-19 15:34N 57°41' E 010°59'1212.2
2014-Nov-19 14:33N 57°33' E 011°16'1110.9
2014-Nov-19 13:33N 57°24' E 011°28'85 7.5
2014-Nov-19 02:17N 56°08' E 010°20'  

Dump ship's entire track history